Time;durP1;ratioP1;P1;durP2;ratioP2;P2;SDS_P1;SDS_P2;PMS_P1;PMS_P2;Temp;Humidity;BMP_temperature;BMP_pressure;BME280_temperature;BME280_humidity;BME280_pressure;Samples;Min_cycle;Max_cycle;Signal;HPM_P1;HPM_P2
2022/07/29 00:02:18;;;;;;;5.20;2.45;;;23.40;78.10;;;;;;5093321;28;20027;-85
2022/07/29 00:04:43;;;;;;;5.68;2.70;;;23.40;78.20;;;;;;5079660;28;20021;-85
2022/07/29 00:07:09;;;;;;;3.25;2.25;;;23.40;78.30;;;;;;5095743;28;20115;-86
2022/07/29 00:09:35;;;;;;;3.22;2.20;;;23.40;78.60;;;;;;5093142;28;20123;-85
2022/07/29 00:12:01;;;;;;;4.10;2.40;;;23.40;78.80;;;;;;5082377;28;20078;-85
2022/07/29 00:14:27;;;;;;;3.05;2.20;;;23.30;79.10;;;;;;5089119;28;20106;-86
2022/07/29 00:16:53;;;;;;;2.75;2.10;;;23.30;79.20;;;;;;5112454;28;20130;-84
2022/07/29 00:19:19;;;;;;;2.78;2.33;;;23.20;79.40;;;;;;5114959;28;20115;-84
2022/07/29 00:21:44;;;;;;;3.92;2.45;;;23.20;79.50;;;;;;5107309;28;20028;-84
2022/07/29 00:24:10;;;;;;;2.50;2.13;;;23.20;79.60;;;;;;5086191;28;20548;-86
2022/07/29 00:26:35;;;;;;;5.22;3.13;;;23.20;79.80;;;;;;5117550;28;20106;-85
2022/07/29 00:29:03;;;;;;;3.20;2.17;;;23.20;80.10;;;;;;5117279;28;20055;-85
2022/07/29 00:31:29;;;;;;;5.63;2.60;;;23.20;80.20;;;;;;5098945;28;20020;-84
2022/07/29 00:33:55;;;;;;;4.50;2.40;;;23.10;80.20;;;;;;5099294;28;20019;-84
2022/07/29 00:36:21;;;;;;;3.03;2.20;;;23.10;80.60;;;;;;5116973;28;20089;-85
2022/07/29 00:38:50;;;;;;;3.63;2.38;;;23.10;80.80;;;;;;5099746;28;20403;-84
2022/07/29 00:41:17;;;;;;;3.00;2.65;;;23.00;81.00;;;;;;5116807;28;20027;-85
2022/07/29 00:43:43;;;;;;;4.38;2.35;;;23.00;81.10;;;;;;5080775;28;20114;-85
2022/07/29 00:46:09;;;;;;;3.97;2.58;;;23.00;81.20;;;;;;5097134;28;20063;-85
2022/07/29 00:48:35;;;;;;;2.42;2.20;;;23.00;81.40;;;;;;5094413;28;20024;-84
2022/07/29 00:51:03;;;;;;;5.15;2.70;;;23.00;81.70;;;;;;5099260;28;20031;-84
2022/07/29 00:53:29;;;;;;;2.50;2.30;;;22.90;81.80;;;;;;5098617;28;20223;-85
2022/07/29 00:55:56;;;;;;;2.58;2.33;;;22.80;82.10;;;;;;5098776;28;20130;-85
2022/07/29 00:58:22;;;;;;;4.07;2.25;;;22.80;82.30;;;;;;5116623;28;20024;-85
2022/07/29 01:00:48;;;;;;;4.03;2.40;;;22.80;82.70;;;;;;5099172;28;20024;-84
2022/07/29 01:03:14;;;;;;;3.33;2.70;;;22.80;82.80;;;;;;5098429;28;20027;-84
2022/07/29 01:05:42;;;;;;;3.17;2.28;;;22.70;83.00;;;;;;5099142;28;20591;-84
2022/07/29 01:08:08;;;;;;;3.50;2.72;;;22.70;83.20;;;;;;5116962;28;20077;-85
2022/07/29 01:10:37;;;;;;;3.72;2.40;;;22.70;83.40;;;;;;5098317;28;20043;-85
2022/07/29 01:13:04;;;;;;;2.88;2.50;;;22.60;83.60;;;;;;5116709;28;20027;-85
2022/07/29 01:15:29;;;;;;;4.32;2.25;;;22.60;84.20;;;;;;5096438;28;20143;-86
2022/07/29 01:18:11;;;;;;;5.28;2.55;;;22.60;84.20;;;;;;5116367;28;20103;-85
2022/07/29 01:21:03;;;;;;;2.70;2.40;;;22.60;84.90;;;;;;5098161;28;20027;-84
2022/07/29 01:24:07;;;;;;;7.20;2.50;;;22.50;85.40;;;;;;5116117;28;20070;-85
2022/07/29 01:27:13;;;;;;;4.25;2.63;;;22.40;85.50;;;;;;5115754;28;20084;-85
2022/07/29 01:29:43;;;;;;;3.95;2.78;;;22.30;86.10;;;;;;5087594;28;20031;-85
2022/07/29 01:32:13;;;;;;;3.50;2.20;;;22.40;86.00;;;;;;5097932;28;20059;-85
2022/07/29 01:34:43;;;;;;;6.30;2.75;;;22.40;86.50;;;;;;5098249;28;20020;-85
2022/07/29 01:37:23;;;;;;;3.90;2.22;;;22.40;86.50;;;;;;5097997;28;20035;-83
2022/07/29 01:39:54;;;;;;;3.47;2.20;;;22.30;86.80;;;;;;5115735;28;20430;-83
2022/07/29 01:42:41;;;;;;;4.07;2.45;;;22.40;86.90;;;;;;5097545;28;20027;-83
2022/07/29 01:45:16;;;;;;;4.97;2.55;;;22.40;87.30;;;;;;5098222;28;20063;-83
2022/07/29 01:47:52;;;;;;;4.50;2.50;;;22.30;87.40;;;;;;5098097;28;20087;-82
2022/07/29 01:50:23;;;;;;;4.80;2.88;;;22.30;87.60;;;;;;5115771;28;20464;-83
2022/07/29 01:52:58;;;;;;;4.70;2.80;;;22.20;88.30;;;;;;5116276;28;20097;-83
2022/07/29 01:55:38;;;;;;;4.75;3.00;;;22.30;88.60;;;;;;5115576;28;20077;-83
2022/07/29 01:58:05;;;;;;;8.35;2.83;;;22.20;88.80;;;;;;5116183;28;20051;-82
2022/07/29 02:00:33;;;;;;;5.35;2.60;;;22.20;89.00;;;;;;5097805;28;20085;-83
2022/07/29 02:03:03;;;;;;;3.97;2.38;;;22.20;89.20;;;;;;5098154;28;20054;-83
2022/07/29 02:05:32;;;;;;;3.35;2.47;;;22.20;89.40;;;;;;5097300;28;20028;-83
2022/07/29 02:07:59;;;;;;;6.03;3.30;;;22.20;89.60;;;;;;5115724;28;20034;-84
2022/07/29 02:10:28;;;;;;;4.90;3.00;;;22.20;90.00;;;;;;5097298;28;20028;-84
2022/07/29 02:12:56;;;;;;;5.25;2.63;;;22.10;90.10;;;;;;5115688;28;20090;-83
2022/07/29 02:15:24;;;;;;;4.32;2.42;;;22.10;90.20;;;;;;5114982;28;20067;-83
2022/07/29 02:18:07;;;;;;;3.53;2.72;;;22.10;90.20;;;;;;5097537;28;20469;-83
2022/07/29 02:20:34;;;;;;;2.95;2.60;;;22.10;90.20;;;;;;5115264;28;20042;-84
2022/07/29 02:23:02;;;;;;;3.50;2.30;;;22.10;90.40;;;;;;5097906;28;20368;-84
2022/07/29 02:25:29;;;;;;;3.10;2.75;;;22.00;90.50;;;;;;5114780;28;20054;-84
2022/07/29 02:27:56;;;;;;;4.85;2.95;;;22.00;90.60;;;;;;5097366;28;20036;-84
2022/07/29 02:30:23;;;;;;;4.60;2.65;;;21.90;90.70;;;;;;5096895;28;20034;-84
2022/07/29 02:32:51;;;;;;;4.93;2.80;;;21.90;90.70;;;;;;5115314;28;20037;-85
2022/07/29 02:35:18;;;;;;;4.30;2.60;;;21.90;91.00;;;;;;5096691;28;20122;-85
2022/07/29 02:38:49;;;;;;;4.25;2.85;;;21.90;90.80;;;;;;5097265;28;20082;-85
2022/07/29 02:40:32;;;;;;;5.13;2.67;;;21.80;91.10;;;;;;5114056;28;20436;-84
2022/07/29 02:42:58;;;;;;;4.63;2.92;;;21.80;91.20;;;;;;5096944;28;20077;-85
2022/07/29 02:45:24;;;;;;;3.33;2.95;;;21.80;91.20;;;;;;5114753;28;20032;-84
2022/07/29 02:47:51;;;;;;;3.67;2.97;;;21.70;91.40;;;;;;5115345;28;20028;-85
2022/07/29 02:50:32;;;;;;;4.63;3.00;;;21.50;91.80;;;;;;5096824;28;20380;-86
2022/07/29 02:53:07;;;;;;;4.53;3.05;;;21.60;92.00;;;;;;5115392;28;20114;-84
2022/07/29 02:55:40;;;;;;;4.88;2.90;;;21.60;92.00;;;;;;5096822;28;20040;-84
2022/07/29 02:58:28;;;;;;;3.03;2.50;;;21.60;92.10;;;;;;5097084;28;20166;-84
2022/07/29 03:00:56;;;;;;;4.63;3.25;;;21.60;92.40;;;;;;5097090;28;20457;-85
2022/07/29 03:03:25;;;;;;;5.88;3.15;;;21.60;92.60;;;;;;5096523;28;20483;-85
2022/07/29 03:05:54;;;;;;;4.95;3.20;;;21.60;92.80;;;;;;5093488;28;20027;-85
2022/07/29 03:08:21;;;;;;;5.68;3.00;;;21.60;92.90;;;;;;5098781;28;20052;-85
2022/07/29 03:10:48;;;;;;;6.18;3.05;;;21.60;93.10;;;;;;5094142;28;20467;-84
2022/07/29 03:13:15;;;;;;;3.65;2.80;;;21.60;93.00;;;;;;5094411;28;20028;-83
2022/07/29 03:15:43;;;;;;;5.43;3.17;;;21.60;93.10;;;;;;5084288;28;20059;-84
2022/07/29 03:18:09;;;;;;;4.88;3.03;;;21.60;93.10;;;;;;5088136;28;20427;-85
2022/07/29 03:20:36;;;;;;;4.15;3.05;;;21.60;93.10;;;;;;5076147;28;20024;-86
2022/07/29 03:23:02;;;;;;;3.63;3.17;;;21.60;93.20;;;;;;5096552;28;20059;-83
2022/07/29 03:25:28;;;;;;;7.85;2.88;;;21.60;93.20;;;;;;5114488;28;20035;-84
2022/07/29 03:27:54;;;;;;;3.30;2.80;;;21.60;93.30;;;;;;5113353;28;20031;-83
2022/07/29 03:30:19;;;;;;;9.57;3.13;;;21.50;93.40;;;;;;5096063;28;20023;-84
2022/07/29 03:32:45;;;;;;;5.55;3.20;;;21.50;93.60;;;;;;5079428;28;20032;-83
2022/07/29 03:35:11;;;;;;;3.70;2.92;;;21.50;93.70;;;;;;5095783;28;20392;-83
2022/07/29 03:37:36;;;;;;;3.67;2.92;;;21.50;93.70;;;;;;5097320;28;20015;-83
2022/07/29 03:40:06;;;;;;;4.18;2.90;;;21.40;93.90;;;;;;5099684;28;20391;-84
2022/07/29 03:42:35;;;;;;;6.43;2.88;;;21.50;93.90;;;;;;5101633;28;20028;-85
2022/07/29 03:45:05;;;;;;;7.72;3.13;;;21.40;94.10;;;;;;5117445;28;20114;-85
2022/07/29 03:47:32;;;;;;;2.93;2.63;;;21.30;94.60;;;;;;5099321;28;20015;-85
2022/07/29 03:50:06;;;;;;;4.05;2.97;;;21.20;94.80;;;;;;5099986;28;20263;-82
2022/07/29 03:52:32;;;;;;;4.65;2.88;;;21.20;95.00;;;;;;5099921;28;20380;-82
2022/07/29 03:54:58;;;;;;;6.90;2.80;;;21.30;94.90;;;;;;5118092;28;20030;-83
2022/07/29 03:57:27;;;;;;;4.97;3.00;;;21.20;95.10;;;;;;5111475;28;20377;-84
2022/07/29 03:59:53;;;;;;;7.80;3.28;;;21.20;95.30;;;;;;5079650;28;20081;-84
2022/07/29 04:02:19;;;;;;;3.85;2.92;;;21.20;95.50;;;;;;5079594;28;20461;-85
2022/07/29 04:04:45;;;;;;;4.03;3.10;;;21.10;96.00;;;;;;5080612;28;20027;-84
2022/07/29 04:07:14;;;;;;;4.85;3.22;;;21.00;95.70;;;;;;5104118;28;20023;-84
2022/07/29 04:09:41;;;;;;;4.07;3.13;;;20.90;95.60;;;;;;5117473;28;20019;-85
2022/07/29 04:12:07;;;;;;;6.00;3.58;;;20.90;95.70;;;;;;5099929;28;20053;-84
2022/07/29 04:14:34;;;;;;;3.83;3.28;;;20.80;95.70;;;;;;5117074;28;20023;-84
2022/07/29 04:17:00;;;;;;;6.35;2.85;;;20.90;95.70;;;;;;5082640;28;20035;-84
2022/07/29 04:19:26;;;;;;;4.47;3.22;;;20.90;95.70;;;;;;5117336;28;20028;-84
2022/07/29 04:21:52;;;;;;;4.63;2.92;;;20.90;95.80;;;;;;5099994;28;20030;-84
2022/07/29 04:24:17;;;;;;;3.65;2.90;;;20.80;95.90;;;;;;5100089;28;20027;-84
2022/07/29 04:26:43;;;;;;;6.40;3.45;;;20.80;96.00;;;;;;5099773;28;20039;-84
2022/07/29 04:29:09;;;;;;;6.63;3.30;;;20.80;96.10;;;;;;5095338;28;20376;-84
2022/07/29 04:31:34;;;;;;;4.82;3.05;;;20.70;96.20;;;;;;5104848;28;20432;-84
2022/07/29 04:34:00;;;;;;;4.88;3.30;;;20.80;96.70;;;;;;5088052;28;20069;-83
2022/07/29 04:36:25;;;;;;;8.93;3.47;;;20.80;97.10;;;;;;5090267;28;20032;-84
2022/07/29 04:38:51;;;;;;;4.30;3.20;;;20.70;97.30;;;;;;5117441;28;20028;-84
2022/07/29 04:41:16;;;;;;;4.63;3.22;;;20.80;97.40;;;;;;5099784;28;20019;-84
2022/07/29 04:43:42;;;;;;;4.82;3.40;;;20.80;97.60;;;;;;5117146;28;20023;-84
2022/07/29 04:46:07;;;;;;;6.00;3.90;;;20.80;97.90;;;;;;5099524;28;20036;-83
2022/07/29 04:48:33;;;;;;;5.50;3.63;;;20.70;98.00;;;;;;5098509;28;20020;-84
2022/07/29 04:50:59;;;;;;;4.60;3.80;;;20.80;98.20;;;;;;5099089;28;20031;-84
2022/07/29 04:53:25;;;;;;;10.95;7.85;;;20.60;98.70;;;;;;5116901;28;20019;-88
2022/07/29 04:55:50;;;;;;;9.00;4.90;;;20.70;98.80;;;;;;5099197;28;20040;-89
2022/07/29 04:58:16;;;;;;;14.30;9.38;;;20.60;99.00;;;;;;5117346;28;20020;-89
2022/07/29 05:00:42;;;;;;;6.95;5.22;;;20.60;98.80;;;;;;5098928;28;20118;-88
2022/07/29 05:03:07;;;;;;;8.18;4.15;;;20.50;99.00;;;;;;5098975;28;20106;-89
2022/07/29 05:05:33;;;;;;;6.88;4.40;;;20.40;99.00;;;;;;5116691;28;20066;-88
2022/07/29 05:07:59;;;;;;;9.38;4.63;;;20.50;98.70;;;;;;5116471;28;20020;-89
2022/07/29 05:10:24;;;;;;;7.35;3.78;;;20.60;98.20;;;;;;5083964;28;20024;-88
2022/07/29 05:12:59;;;;;;;8.50;4.18;;;20.50;97.80;;;;;;5096568;28;20445;-88
2022/07/29 05:15:25;;;;;;;9.57;4.13;;;20.50;98.00;;;;;;5083730;28;20373;-88
2022/07/29 05:17:50;;;;;;;13.98;3.85;;;20.50;97.80;;;;;;5097512;28;20094;-89
2022/07/29 05:20:16;;;;;;;8.68;3.80;;;20.50;97.70;;;;;;5098308;28;20028;-89
2022/07/29 05:22:41;;;;;;;5.35;3.53;;;20.50;97.60;;;;;;5115372;28;20039;-88
2022/07/29 05:25:08;;;;;;;8.80;4.10;;;20.60;97.30;;;;;;5098861;28;20114;-89
2022/07/29 05:27:35;;;;;;;5.85;3.97;;;20.60;97.10;;;;;;5116136;28;20145;-84
2022/07/29 05:30:01;;;;;;;6.95;3.90;;;20.70;97.00;;;;;;5104770;28;20028;-84
2022/07/29 05:32:26;;;;;;;10.13;3.90;;;20.70;96.70;;;;;;5095671;28;20438;-84
2022/07/29 05:34:52;;;;;;;7.47;3.70;;;20.70;96.50;;;;;;5078251;28;20028;-83
2022/07/29 05:37:19;;;;;;;9.32;3.22;;;20.80;96.20;;;;;;5096579;28;20122;-82
2022/07/29 05:39:44;;;;;;;7.45;3.65;;;20.80;95.90;;;;;;5096926;28;20020;-83
2022/07/29 05:42:10;;;;;;;7.38;3.72;;;20.80;95.60;;;;;;5108615;28;20094;-83
2022/07/29 05:44:37;;;;;;;5.53;3.28;;;20.90;95.40;;;;;;5080651;28;20384;-84
2022/07/29 05:47:03;;;;;;;4.82;3.17;;;20.90;95.10;;;;;;5097680;28;20035;-82
2022/07/29 05:49:28;;;;;;;7.43;3.50;;;20.90;95.10;;;;;;5097628;28;20030;-84
2022/07/29 05:51:54;;;;;;;6.13;3.58;;;21.00;94.90;;;;;;5105384;28;20031;-84
2022/07/29 05:54:20;;;;;;;3.20;2.90;;;21.00;94.60;;;;;;5077373;28;20055;-84
2022/07/29 05:56:46;;;;;;;5.15;3.33;;;21.00;94.60;;;;;;5095208;28;20028;-84
2022/07/29 05:59:11;;;;;;;9.73;3.35;;;21.10;94.40;;;;;;5076905;28;20027;-84
2022/07/29 06:01:39;;;;;;;5.97;3.22;;;21.20;94.40;;;;;;5076957;28;20085;-84
2022/07/29 06:04:07;;;;;;;4.55;3.55;;;21.20;94.10;;;;;;5095735;28;20162;-85
2022/07/29 06:06:34;;;;;;;6.75;3.13;;;21.20;93.80;;;;;;5107697;28;20043;-82
2022/07/29 06:09:01;;;;;;;5.65;2.90;;;21.30;93.30;;;;;;5097545;28;20028;-86
2022/07/29 06:11:27;;;;;;;5.40;3.20;;;21.20;93.10;;;;;;5096752;28;20114;-85
2022/07/29 06:13:53;;;;;;;5.25;2.75;;;21.30;93.00;;;;;;5115625;28;20108;-85
2022/07/29 06:16:18;;;;;;;7.65;3.10;;;21.30;93.00;;;;;;5096954;28;20075;-85
2022/07/29 06:18:44;;;;;;;5.47;2.95;;;21.30;92.80;;;;;;5097028;28;20019;-86
2022/07/29 06:21:10;;;;;;;7.95;2.90;;;21.30;92.80;;;;;;5097445;28;20069;-85
2022/07/29 06:23:37;;;;;;;7.00;3.17;;;21.40;93.00;;;;;;5097162;28;20460;-83
2022/07/29 06:26:03;;;;;;;4.18;3.10;;;21.30;93.20;;;;;;5115312;28;20083;-85
2022/07/29 06:28:29;;;;;;;7.45;3.30;;;21.50;93.30;;;;;;5096736;28;20437;-84
2022/07/29 06:30:55;;;;;;;6.78;3.53;;;21.50;93.30;;;;;;5097011;28;20035;-87
2022/07/29 06:33:20;;;;;;;6.72;3.72;;;21.60;93.40;;;;;;5114945;28;20095;-87
2022/07/29 06:35:47;;;;;;;6.35;3.17;;;21.60;93.30;;;;;;5107943;28;20036;-84
2022/07/29 06:38:13;;;;;;;5.43;3.08;;;21.60;93.20;;;;;;5107671;28;20023;-85
2022/07/29 06:43:33;;;;;;;6.88;3.50;;;21.80;92.80;;;;;;5114954;28;20046;-85
2022/07/29 06:46:03;;;;;;;;;;;21.80;92.30;;;;;;5084944;28;20074;-84
2022/07/29 06:48:29;;;;;;;4.88;3.00;;;21.80;92.10;;;;;;5099525;28;19926;-84
2022/07/29 06:50:54;;;;;;;6.30;3.08;;;22.00;92.10;;;;;;5078682;28;20035;-85
2022/07/29 06:53:20;;;;;;;5.85;3.45;;;22.00;91.90;;;;;;5114738;28;20028;-85
2022/07/29 06:55:46;;;;;;;6.95;3.50;;;22.10;92.10;;;;;;5096049;28;20032;-83
2022/07/29 06:58:13;;;;;;;7.00;3.85;;;22.20;91.80;;;;;;5115020;28;20065;-81
2022/07/29 07:00:39;;;;;;;7.65;3.90;;;22.10;91.80;;;;;;5095578;28;20418;-84
2022/07/29 07:03:05;;;;;;;6.13;3.47;;;22.10;91.90;;;;;;5079808;28;20109;-84
2022/07/29 07:05:30;;;;;;;4.22;3.00;;;22.20;91.90;;;;;;5092709;28;20020;-85
2022/07/29 07:07:56;;;;;;;9.65;3.20;;;22.20;91.90;;;;;;5096558;28;20020;-85
2022/07/29 07:10:21;;;;;;;5.72;2.72;;;22.20;91.80;;;;;;5113963;28;20027;-85
2022/07/29 07:12:47;;;;;;;4.40;2.70;;;22.30;91.60;;;;;;5095041;28;20023;-85
2022/07/29 07:15:13;;;;;;;8.52;2.90;;;22.30;91.40;;;;;;5090727;28;20051;-85
2022/07/29 07:17:38;;;;;;;7.38;2.90;;;22.40;91.30;;;;;;5093277;28;20476;-85
2022/07/29 07:20:06;;;;;;;5.72;2.50;;;22.50;91.10;;;;;;5093806;28;20024;-84
2022/07/29 07:22:31;;;;;;;5.60;3.10;;;22.50;90.90;;;;;;5093575;28;20020;-85
2022/07/29 07:24:57;;;;;;;2.95;2.58;;;22.50;91.00;;;;;;5094036;28;20078;-85
2022/07/29 07:27:22;;;;;;;4.30;2.80;;;22.50;91.10;;;;;;5094297;28;20024;-85
2022/07/29 07:29:48;;;;;;;8.20;2.70;;;22.50;91.20;;;;;;5093554;28;20775;-87
2022/07/29 07:32:15;;;;;;;7.80;3.03;;;22.50;91.10;;;;;;5076308;28;20024;-87
2022/07/29 07:34:42;;;;;;;9.90;3.08;;;22.60;91.10;;;;;;5093505;28;20020;-87
2022/07/29 07:37:08;;;;;;;5.15;2.70;;;22.60;91.00;;;;;;5111610;28;20084;-87
2022/07/29 07:39:33;;;;;;;7.15;3.00;;;22.70;91.00;;;;;;5113911;28;20031;-87
2022/07/29 07:41:59;;;;;;;4.93;2.70;;;22.80;90.90;;;;;;5096327;28;20031;-87
2022/07/29 07:44:25;;;;;;;6.82;3.05;;;22.80;90.90;;;;;;5096534;28;20027;-85
2022/07/29 07:46:51;;;;;;;6.57;3.00;;;22.80;90.80;;;;;;5095942;28;20047;-85
2022/07/29 07:49:16;;;;;;;5.65;2.60;;;22.90;90.80;;;;;;5114079;28;20036;-87
2022/07/29 07:51:42;;;;;;;7.32;2.60;;;23.00;90.70;;;;;;5086592;28;20178;-87
2022/07/29 07:54:07;;;;;;;4.55;2.92;;;23.10;90.30;;;;;;5075891;28;20521;-87
2022/07/29 07:56:33;;;;;;;2.88;2.33;;;23.20;90.20;;;;;;5079228;28;20031;-85
2022/07/29 07:58:58;;;;;;;8.23;3.10;;;23.20;90.00;;;;;;5113271;28;20431;-83
2022/07/29 08:01:24;;;;;;;6.53;3.00;;;23.30;89.80;;;;;;5113715;28;20023;-86
2022/07/29 08:03:50;;;;;;;5.22;2.75;;;23.20;89.80;;;;;;5095255;28;20028;-87
2022/07/29 08:06:15;;;;;;;3.60;2.60;;;23.20;89.90;;;;;;5113461;28;20028;-82
2022/07/29 08:08:41;;;;;;;3.90;2.50;;;23.30;89.50;;;;;;5095287;28;20026;-87
2022/07/29 08:11:07;;;;;;;3.58;2.30;;;23.40;88.10;;;;;;5095406;28;20069;-85
2022/07/29 08:13:32;;;;;;;3.63;2.60;;;23.40;87.40;;;;;;5095215;28;20137;-83
2022/07/29 08:16:10;;;;;;;5.70;2.35;;;23.30;87.10;;;;;;5095079;28;20408;-85
2022/07/29 08:18:36;;;;;;;4.05;2.10;;;23.30;86.70;;;;;;5112862;28;20084;-80
2022/07/29 08:21:01;;;;;;;3.55;2.20;;;23.30;86.00;;;;;;5113242;28;20454;-79
2022/07/29 08:23:34;;;;;;;3.58;2.38;;;23.30;85.80;;;;;;5114525;28;20023;-82
2022/07/29 08:26:02;;;;;;;3.67;2.10;;;23.40;85.00;;;;;;5098696;28;20190;-82
2022/07/29 08:28:28;;;;;;;2.47;2.22;;;23.50;84.10;;;;;;5098641;28;20043;-82
2022/07/29 08:30:53;;;;;;;3.30;2.17;;;23.50;84.00;;;;;;5098125;28;20055;-80
2022/07/29 08:33:19;;;;;;;4.35;2.25;;;23.60;84.20;;;;;;5104555;28;20024;-80
2022/07/29 08:35:45;;;;;;;7.07;2.20;;;23.60;82.90;;;;;;5109976;28;20502;-79
2022/07/29 08:38:11;;;;;;;5.30;2.58;;;23.80;82.10;;;;;;5097649;28;20027;-79
2022/07/29 08:40:36;;;;;;;2.72;1.92;;;24.00;81.60;;;;;;5115838;28;20028;-80
2022/07/29 08:43:07;;;;;;;2.72;1.92;;;24.10;80.80;;;;;;5094661;28;20016;-80
2022/07/29 08:45:51;;;;;;;4.47;2.20;;;24.20;79.40;;;;;;5089891;28;20081;-79
2022/07/29 08:48:21;;;;;;;8.75;2.03;;;24.20;78.90;;;;;;5098338;28;20027;-85
2022/07/29 08:50:49;;;;;;;5.33;2.10;;;24.20;78.50;;;;;;5115820;28;20023;-82
2022/07/29 08:53:17;;;;;;;4.80;2.38;;;24.30;78.50;;;;;;5098379;28;20119;-83
2022/07/29 08:55:45;;;;;;;5.10;2.15;;;24.50;77.90;;;;;;5097893;28;20031;-83
2022/07/29 08:58:12;;;;;;;2.97;2.15;;;24.40;77.80;;;;;;5098262;28;20024;-83
2022/07/29 09:00:42;;;;;;;3.60;1.90;;;24.40;77.00;;;;;;5080888;28;20024;-83
2022/07/29 09:03:11;;;;;;;2.97;1.77;;;24.40;77.30;;;;;;5101551;28;20055;-83
2022/07/29 09:05:40;;;;;;;5.82;1.73;;;24.40;77.00;;;;;;5099883;28;20016;-82
2022/07/29 09:08:06;;;;;;;5.07;2.08;;;24.40;76.80;;;;;;5086647;28;20461;-83
2022/07/29 09:10:34;;;;;;;14.30;2.50;;;24.40;76.50;;;;;;5092646;28;20035;-83
2022/07/29 09:13:00;;;;;;;4.13;2.00;;;24.40;76.50;;;;;;5106126;28;20433;-78
2022/07/29 09:15:25;;;;;;;5.38;2.17;;;24.40;75.40;;;;;;5107155;28;20094;-85
2022/07/29 09:17:51;;;;;;;7.80;2.15;;;24.50;74.80;;;;;;5090658;28;20027;-87
2022/07/29 09:20:19;;;;;;;4.13;1.92;;;24.40;74.90;;;;;;5083120;28;20024;-88
2022/07/29 09:22:49;;;;;;;4.00;1.90;;;24.30;74.80;;;;;;5084093;28;20024;-84
2022/07/29 09:25:31;;;;;;;4.47;1.90;;;24.40;75.30;;;;;;5116013;28;20054;-85
2022/07/29 09:28:09;;;;;;;3.97;1.95;;;24.50;75.00;;;;;;5104601;28;20734;-84
2022/07/29 09:30:35;;;;;;;5.55;2.22;;;24.50;74.60;;;;;;5095144;28;20024;-84
2022/07/29 09:33:03;;;;;;;4.85;1.90;;;24.50;74.90;;;;;;5082755;28;20073;-84
2022/07/29 09:35:29;;;;;;;6.60;1.77;;;24.50;75.20;;;;;;5084031;28;20031;-83
2022/07/29 09:37:55;;;;;;;4.25;1.92;;;24.50;75.50;;;;;;5096955;28;20110;-81
2022/07/29 09:40:27;;;;;;;3.60;1.60;;;24.60;75.00;;;;;;5115458;28;20015;-81
2022/07/29 09:42:56;;;;;;;4.75;1.88;;;24.70;74.40;;;;;;5106712;28;20448;-89
2022/07/29 09:45:34;;;;;;;4.90;1.90;;;24.80;74.10;;;;;;5099047;28;20225;-86
2022/07/29 09:48:14;;;;;;;4.82;2.22;;;24.90;73.90;;;;;;5098210;28;20069;-91
2022/07/29 09:50:41;;;;;;;5.07;2.00;;;25.20;72.70;;;;;;5097198;28;20024;-84
2022/07/29 09:53:09;;;;;;;2.72;1.65;;;25.30;72.00;;;;;;5115824;28;20098;-83
2022/07/29 09:55:47;;;;;;;6.80;1.80;;;25.40;71.20;;;;;;5115027;28;20038;-86
2022/07/29 09:58:18;;;;;;;5.88;1.75;;;25.50;70.60;;;;;;5097985;28;20123;-82
2022/07/29 10:00:45;;;;;;;3.78;1.83;;;25.60;70.50;;;;;;5097105;28;20370;-84
2022/07/29 10:03:11;;;;;;;5.50;1.90;;;25.50;70.10;;;;;;5097779;28;20036;-83
2022/07/29 10:05:37;;;;;;;3.80;1.80;;;25.50;70.40;;;;;;5088623;28;20031;-83
2022/07/29 10:08:04;;;;;;;4.90;1.80;;;25.60;70.40;;;;;;5106981;28;20027;-83
2022/07/29 10:10:33;;;;;;;2.80;1.52;;;25.60;69.80;;;;;;5096971;28;20023;-83
2022/07/29 10:13:04;;;;;;;4.90;1.75;;;25.70;69.50;;;;;;5115216;28;20041;-83
2022/07/29 10:15:32;;;;;;;3.13;1.70;;;25.80;69.30;;;;;;5107993;28;20056;-83
2022/07/29 10:17:58;;;;;;;3.47;1.67;;;25.80;69.00;;;;;;5075998;28;20055;-83
2022/07/29 10:20:27;;;;;;;1.85;1.50;;;25.90;68.70;;;;;;5076655;28;20031;-83
2022/07/29 10:22:53;;;;;;;4.72;1.65;;;26.00;68.60;;;;;;5093999;28;20132;-83
2022/07/29 10:25:20;;;;;;;3.10;1.58;;;26.10;68.20;;;;;;5081996;28;20019;-82
2022/07/29 10:27:48;;;;;;;6.68;2.20;;;26.10;68.50;;;;;;5096038;28;20076;-83
2022/07/29 10:30:15;;;;;;;4.45;2.20;;;26.10;68.40;;;;;;5101342;28;20028;-84
2022/07/29 10:32:56;;;;;;;3.13;1.63;;;26.10;68.10;;;;;;5093156;28;20027;-83
2022/07/29 10:35:46;;;;;;;5.07;2.10;;;26.00;68.30;;;;;;5090412;28;20051;-83
2022/07/29 10:38:54;;;;;;;6.20;2.00;;;26.00;68.10;;;;;;5076784;28;20034;-83
2022/07/29 10:41:37;;;;;;;3.38;1.83;;;25.90;68.40;;;;;;5049900;28;20035;-83
2022/07/29 10:44:20;;;;;;;4.93;1.85;;;26.00;68.20;;;;;;5094226;28;20036;-84
2022/07/29 10:46:46;;;;;;;3.08;1.90;;;26.00;68.20;;;;;;5091584;28;20093;-84
2022/07/29 10:49:29;;;;;;;4.60;1.83;;;26.10;68.20;;;;;;5093087;28;20461;-83
2022/07/29 10:52:09;;;;;;;3.70;1.70;;;26.00;67.90;;;;;;5104375;28;20024;-82
2022/07/29 10:54:42;;;;;;;2.50;1.80;;;26.00;68.10;;;;;;5095809;28;20032;-92
2022/07/29 10:57:20;;;;;;;2.28;1.70;;;26.20;67.90;;;;;;5091773;28;20020;-82
2022/07/29 10:59:51;;;;;;;2.50;1.88;;;26.20;67.60;;;;;;5075408;28;20073;-82
2022/07/29 11:02:50;;;;;;;4.43;2.30;;;26.30;67.80;;;;;;5089947;28;20024;-83
2022/07/29 11:05:20;;;;;;;2.67;1.67;;;26.50;66.50;;;;;;5090174;28;20028;-82
2022/07/29 11:08:22;;;;;;;2.97;2.00;;;26.60;66.50;;;;;;5085012;28;20020;-84
2022/07/29 11:10:52;;;;;;;5.30;2.70;;;26.90;66.00;;;;;;5109559;28;20461;-82
2022/07/29 11:13:42;;;;;;;4.45;2.28;;;27.00;66.20;;;;;;5096118;28;20031;-83
2022/07/29 11:16:08;;;;;;;5.70;2.20;;;27.00;65.90;;;;;;5095263;28;20103;-81
2022/07/29 11:18:34;;;;;;;2.90;1.98;;;27.20;65.90;;;;;;5096282;28;20351;-87
2022/07/29 11:21:00;;;;;;;8.27;2.40;;;27.20;65.70;;;;;;5092870;28;20103;-83
2022/07/29 11:23:38;;;;;;;4.70;2.10;;;27.20;65.80;;;;;;5093938;28;20372;-82
2022/07/29 11:26:16;;;;;;;3.75;1.60;;;27.30;65.00;;;;;;5094011;28;20032;-82
2022/07/29 11:29:16;;;;;;;4.35;1.67;;;27.50;65.00;;;;;;5093578;28;20484;-82
2022/07/29 11:31:45;;;;;;;3.08;1.73;;;27.50;63.50;;;;;;5095628;28;20020;-84
2022/07/29 11:34:29;;;;;;;3.05;2.15;;;27.50;63.40;;;;;;5096491;28;20027;-83
2022/07/29 11:37:10;;;;;;;4.28;2.13;;;27.50;63.60;;;;;;5113683;28;20027;-83
2022/07/29 11:39:43;;;;;;;6.10;1.85;;;27.30;63.10;;;;;;5079339;28;20532;-90
2022/07/29 11:42:24;;;;;;;2.80;1.80;;;27.30;63.80;;;;;;5075922;28;20032;-82
2022/07/29 11:45:13;;;;;;;6.63;2.28;;;27.20;63.50;;;;;;5076668;28;20109;-83
2022/07/29 11:47:48;;;;;;;6.22;2.15;;;27.20;63.50;;;;;;5095919;28;20031;-83
2022/07/29 11:50:16;;;;;;;6.30;1.90;;;27.20;63.50;;;;;;5096032;28;20073;-83
2022/07/29 11:52:45;;;;;;;2.95;1.90;;;27.20;63.70;;;;;;5095256;28;20024;-83
2022/07/29 11:55:14;;;;;;;3.25;1.65;;;27.20;64.40;;;;;;5105821;28;20048;-83
2022/07/29 11:58:00;;;;;;;5.65;1.90;;;27.30;63.50;;;;;;5075422;28;20051;-83
2022/07/29 12:00:30;;;;;;;4.88;2.00;;;27.50;63.00;;;;;;5079057;28;20464;-82
2022/07/29 12:02:57;;;;;;;7.78;2.28;;;27.60;63.00;;;;;;5079010;28;20115;-83
2022/07/29 12:05:45;;;;;;;7.22;2.90;;;27.70;62.50;;;;;;5085231;28;20107;-84
2022/07/29 12:08:19;;;;;;;4.80;2.20;;;27.70;62.40;;;;;;5096157;28;20030;-84
2022/07/29 12:10:46;;;;;;;5.28;2.00;;;27.70;62.40;;;;;;5090659;28;20047;-85
2022/07/29 12:13:12;;;;;;;5.88;2.40;;;27.70;62.20;;;;;;5084563;28;20062;-87
2022/07/29 12:15:39;;;;;;;4.68;1.70;;;27.70;62.40;;;;;;5090407;28;20601;-85
2022/07/29 12:18:16;;;;;;;5.45;1.90;;;27.70;62.30;;;;;;5092660;28;20028;-82
2022/07/29 12:20:42;;;;;;;4.45;1.85;;;27.80;61.80;;;;;;5086104;28;20027;-82
2022/07/29 12:23:11;;;;;;;3.08;1.55;;;28.00;61.80;;;;;;5096496;28;20023;-82
2022/07/29 12:25:37;;;;;;;4.75;1.60;;;28.10;61.00;;;;;;5091991;28;20020;-89
2022/07/29 12:28:06;;;;;;;3.97;1.65;;;28.10;60.90;;;;;;5099221;28;20591;-83
2022/07/29 12:30:44;;;;;;;7.53;1.83;;;28.20;60.60;;;;;;5099046;28;20055;-83
2022/07/29 12:33:15;;;;;;;2.20;1.55;;;28.30;59.90;;;;;;5099373;28;20525;-83
2022/07/29 12:35:44;;;;;;;3.58;1.67;;;28.40;59.40;;;;;;5097865;28;20035;-84
2022/07/29 12:38:12;;;;;;;3.13;1.80;;;28.50;58.90;;;;;;5117020;28;20049;-82
2022/07/29 12:40:38;;;;;;;2.50;2.05;;;28.60;58.80;;;;;;5098276;28;20051;-83
2022/07/29 12:43:16;;;;;;;4.13;1.48;;;28.60;57.70;;;;;;5095155;28;20028;-82
2022/07/29 12:45:45;;;;;;;2.35;1.35;;;28.70;56.80;;;;;;5082597;28;20032;-82
2022/07/29 12:48:11;;;;;;;1.92;1.30;;;28.90;56.70;;;;;;5080947;28;20028;-82
2022/07/29 12:50:55;;;;;;;2.45;1.00;;;28.90;56.70;;;;;;5093258;28;20403;-83
2022/07/29 12:53:21;;;;;;;2.63;1.00;;;29.10;56.30;;;;;;5083986;28;20027;-82
2022/07/29 12:55:51;;;;;;;3.05;1.30;;;29.20;55.80;;;;;;5088350;28;20032;-82
2022/07/29 12:58:39;;;;;;;3.75;1.20;;;29.20;55.10;;;;;;5091736;28;20024;-82
2022/07/29 13:01:11;;;;;;;1.67;1.10;;;29.10;54.40;;;;;;5105211;28;20027;-82
2022/07/29 13:03:53;;;;;;;3.05;1.17;;;29.10;54.90;;;;;;5088679;28;20027;-83